Time;durP1;ratioP1;P1;durP2;ratioP2;P2;SDS_P1;SDS_P2;PMS_P1;PMS_P2;Temp;Humidity;BMP_temperature;BMP_pressure;BME280_temperature;BME280_humidity;BME280_pressure;Samples;Min_cycle;Max_cycle;Signal;HPM_P1;HPM_P2
2023/05/25 00:09:20;;;;;;;27.3;18.2;;;;;;;-132.3;0;77470;;;;
2023/05/25 00:20:20;;;;;;;27.3;18.2;;;;;;;-132.3;0;77470;;;;
2023/05/25 00:31:20;;;;;;;27.3;18.2;;;;;;;-132.3;0;77480;;;;
2023/05/25 00:42:20;;;;;;;28.7;20.3;;;;;;;-132.3;0;77490;;;;
2023/05/25 00:52:20;;;;;;;28.7;20.3;;;;;;;-132.3;0;77490;;;;
2023/05/25 01:03:20;;;;;;;25;20.4;;;;;;;-132.3;0;77490;;;;
2023/05/25 01:13:20;;;;;;;25;20.4;;;;;;;-132.3;0;77500;;;;
2023/05/25 01:24:21;;;;;;;25;20.4;;;;;;;-132.3;0;77500;;;;
2023/05/25 01:35:20;;;;;;;27.9;14.3;;;;;;;-132.3;0;77510;;;;
2023/05/25 01:46:20;;;;;;;27.9;14.3;;;;;;;-132.3;0;77520;;;;
2023/05/25 01:56:20;;;;;;;27.9;14.3;;;;;;;-132.3;0;77510;;;;
2023/05/25 02:07:20;;;;;;;28.3;16.6;;;;;;;-132.3;0;77510;;;;
2023/05/25 02:17:20;;;;;;;28.3;16.6;;;;;;;-132.3;0;77520;;;;
2023/05/25 02:28:20;;;;;;;28.3;16.6;;;;;;;-132.3;0;77520;;;;
2023/05/25 02:38:20;;;;;;;32.1;22.1;;;;;;;-132.3;0;77520;;;;
2023/05/25 02:48:20;;;;;;;32.1;22.1;;;;;;;-132.3;0;77520;;;;
2023/05/25 02:58:21;;;;;;;32.1;22.1;;;;;;;-132.3;0;77520;;;;
2023/05/25 03:09:20;;;;;;;31.7;20.3;;;;;;;-132.3;0;77530;;;;
2023/05/25 03:19:20;;;;;;;31.7;20.3;;;;;;;-132.3;0;77520;;;;
2023/05/25 03:29:20;;;;;;;31.7;20.3;;;;;;;-132.3;0;77540;;;;
2023/05/25 03:40:20;;;;;;;42.7;29.3;;;;;;;-132.3;0;77540;;;;
2023/05/25 03:51:20;;;;;;;42.7;29.3;;;;;;;-132.3;0;77550;;;;
2023/05/25 04:02:20;;;;;;;42.7;29.3;;;;;;;-132.3;0;77550;;;;
2023/05/25 04:12:20;;;;;;;39.6;28.9;;;;;;;-132.3;0;77540;;;;
2023/05/25 04:23:20;;;;;;;39.6;28.9;;;;;;;-132.3;0;77550;;;;
2023/05/25 04:33:20;;;;;;;37.4;25;;;;;;;-132.3;0;77560;;;;
2023/05/25 04:43:20;;;;;;;37.4;25;;;;;;;-132.3;0;77570;;;;
2023/05/25 04:53:20;;;;;;;37.4;25;;;;;;;-132.3;0;77570;;;;
2023/05/25 05:04:20;;;;;;;31.9;26.3;;;;;;;-132.3;0;77570;;;;
2023/05/25 05:15:20;;;;;;;31.9;26.3;;;;;;;-132.3;0;77590;;;;
2023/05/25 05:26:21;;;;;;;31.9;26.3;;;;;;;-132.3;0;77590;;;;
2023/05/25 05:36:20;;;;;;;32;28;;;;;;;-132.3;0;77590;;;;
2023/05/25 05:47:21;;;;;;;32;28;;;;;;;-132.3;0;77580;;;;
2023/05/25 05:58:20;;;;;;;32;28;;;;;;;-132.3;0;77550;;;;
2023/05/25 06:09:20;;;;;;;28.3;23.7;;;;;;;-132.3;0;77510;;;;
2023/05/25 06:19:20;;;;;;;28.3;23.7;;;;;;;-132.3;0;77520;;;;
2023/05/25 06:29:20;;;;;;;28.3;23.7;;;;;;;-132.3;0;77530;;;;
2023/05/25 06:39:20;;;;;;;29.7;23;;;;;;;-132.3;0;77520;;;;
2023/05/25 06:49:20;;;;;;;29.7;23;;;;;;;-132.3;0;77540;;;;
2023/05/25 07:00:20;;;;;;;29.7;23;;;;;;;-132.3;0;77550;;;;
2023/05/25 07:11:20;;;;;;;29.3;24.4;;;;;;;-132.3;0;77560;;;;
2023/05/25 07:22:22;;;;;;;29.3;24.4;;;;;;;-132.3;0;77540;;;;
2023/05/25 07:32:21;;;;;;;29.3;24.4;;;;;;;-132.3;0;77540;;;;
2023/05/25 07:42:20;;;;;;;;;;;;;;;-132.3;0;77560;;;;
2023/05/25 07:52:20;;;;;;;34.5;26.9;;;;;;;-132.3;0;77550;;;;
2023/05/25 08:02:20;;;;;;;34.5;26.9;;;;;;;-132.3;0;77530;;;;
2023/05/25 08:13:20;;;;;;;30.3;25.5;;;;;;;-132.3;0;77510;;;;
2023/05/25 08:23:20;;;;;;;;;;;;;;;-132.3;0;77480;;;;
2023/05/25 08:34:20;;;;;;;30.3;27.3;;;;;;;-132.3;0;77460;;;;
2023/05/25 08:44:20;;;;;;;30.3;27.3;;;;;;;-132.3;0;77420;;;;
2023/05/25 08:54:20;;;;;;;30.3;27.3;;;;;;;-132.3;0;77400;;;;
2023/05/25 09:05:21;;;;;;;35.3;28.5;;;;;;;-132.3;0;77350;;;;
2023/05/25 09:16:20;;;;;;;35.3;28.5;;;;;;;-132.3;0;77330;;;;
2023/05/25 09:26:20;;;;;;;35.3;28.5;;;;;;;-132.3;0;77360;;;;
2023/05/25 09:37:20;;;;;;;33.7;28.7;;;;;;;-132.3;0;77330;;;;
2023/05/25 09:47:20;;;;;;;33.7;28.7;;;;;;;-132.3;0;77310;;;;
2023/05/25 09:58:20;;;;;;;33.7;28.7;;;;;;;-132.3;0;77290;;;;
2023/05/25 10:08:20;;;;;;;34;29;;;;;;;-132.3;0;77260;;;;
2023/05/25 10:18:20;;;;;;;34;29;;;;;;;-132.3;0;77250;;;;
2023/05/25 10:29:20;;;;;;;34;29;;;;;;;-132.3;0;77240;;;;
2023/05/25 10:39:20;;;;;;;36.6;30.3;;;;;;;-132.3;0;77210;;;;
2023/05/25 10:50:21;;;;;;;36.6;30.3;;;;;;;-132.3;0;77240;;;;
2023/05/25 11:01:21;;;;;;;36.6;30.3;;;;;;;-132.3;0;77240;;;;
2023/05/25 11:11:21;;;;;;;35.5;30.5;;;;;;;-132.3;0;77210;;;;
2023/05/25 11:22:21;;;;;;;35.5;30.5;;;;;;;-132.3;0;77200;;;;
2023/05/25 11:33:21;;;;;;;44.6;32.8;;;;;;;-132.3;0;77170;;;;
2023/05/25 11:43:22;;;;;;;44.6;32.8;;;;;;;-132.3;0;77170;;;;
2023/05/25 11:53:20;;;;;;;44.6;32.8;;;;;;;-132.3;0;77170;;;;
2023/05/25 12:03:21;;;;;;;40.2;28;;;;;;;-132.3;0;77180;;;;
2023/05/25 12:14:21;;;;;;;40.2;28;;;;;;;-132.3;0;77180;;;;
2023/05/25 12:25:22;;;;;;;40.2;28;;;;;;;-132.3;0;77210;;;;
2023/05/25 12:35:21;;;;;;;38.1;32.4;;;;;;;-132.3;0;77200;;;;
2023/05/25 12:45:21;;;;;;;38.1;32.4;;;;;;;-132.3;0;77230;;;;
2023/05/25 12:55:21;;;;;;;38.1;32.4;;;;;;;-132.3;0;77220;;;;
2023/05/25 13:06:21;;;;;;;39;31.7;;;;;;;-132.3;0;77250;;;;
2023/05/25 13:17:21;;;;;;;39;31.7;;;;;;;-132.3;0;77240;;;;
2023/05/25 13:27:21;;;;;;;39;31.7;;;;;;;-132.3;0;77240;;;;
2023/05/25 13:38:21;;;;;;;35.9;30.7;;;;;;;-132.3;0;77220;;;;
2023/05/25 13:48:21;;;;;;;35.9;30.7;;;;;;;-132.3;0;77200;;;;
2023/05/25 13:59:21;;;;;;;35.9;30.7;;;;;;;-132.3;0;77170;;;;
2023/05/25 14:10:21;;;;;;;35.3;29.3;;;;;;;-132.3;0;77160;;;;
2023/05/25 14:20:24;;;;;;;35.3;29.3;;;;;;;-132.3;0;77170;;;;
2023/05/25 14:30:21;;;;;;;35.3;29.3;;;;;;;-132.3;0;77190;;;;
2023/05/25 14:40:21;;;;;;;37.1;29.9;;;;;;;-132.3;0;77180;;;;
2023/05/25 14:51:21;;;;;;;37.1;29.9;;;;;;;-132.3;0;77200;;;;
2023/05/25 15:02:21;;;;;;;36.1;29.5;;;;;;;-132.3;0;77190;;;;
2023/05/25 15:12:21;;;;;;;36.1;29.5;;;;;;;-132.3;0;77180;;;;
2023/05/25 15:22:21;;;;;;;36.1;29.5;;;;;;;-132.3;0;77180;;;;
2023/05/25 15:32:21;;;;;;;38.8;29.8;;;;;;;-132.3;0;77170;;;;
2023/05/25 15:43:21;;;;;;;38.8;29.8;;;;;;;-132.3;0;77170;;;;
2023/05/25 15:54:21;;;;;;;38.8;29.8;;;;;;;-132.3;0;77190;;;;
2023/05/25 16:05:21;;;;;;;35.9;31.7;;;;;;;-132.3;0;77190;;;;
2023/05/25 16:15:22;;;;;;;35.9;31.7;;;;;;;-132.3;0;77180;;;;
2023/05/25 16:26:21;;;;;;;35.9;31.7;;;;;;;-132.3;0;77200;;;;
2023/05/25 16:37:21;;;;;;;41.4;31.8;;;;;;;-132.3;0;77230;;;;
2023/05/25 16:48:21;;;;;;;41.4;31.8;;;;;;;-132.3;0;77250;;;;
2023/05/25 16:58:22;;;;;;;41.4;31.8;;;;;;;-132.3;0;77260;;;;
2023/05/25 17:09:23;;;;;;;38.9;32.3;;;;;;;-132.3;0;77270;;;;
2023/05/25 17:19:21;;;;;;;38.9;32.3;;;;;;;-132.3;0;77300;;;;
2023/05/25 17:30:21;;;;;;;38.9;32.3;;;;;;;-132.3;0;77310;;;;
2023/05/25 17:41:21;;;;;;;35.9;32.1;;;;;;;-132.3;0;77320;;;;
2023/05/25 17:51:21;;;;;;;35.9;32.1;;;;;;;-132.3;0;77320;;;;
2023/05/25 18:02:21;;;;;;;40;34.5;;;;;;;-132.3;0;77340;;;;
2023/05/25 18:13:21;;;;;;;40;34.5;;;;;;;-132.3;0;77340;;;;
2023/05/25 18:23:21;;;;;;;40;34.5;;;;;;;-132.3;0;77370;;;;
2023/05/25 18:34:21;;;;;;;42;35.1;;;;;;;-132.3;0;77380;;;;
2023/05/25 18:45:21;;;;;;;42;35.1;;;;;;;-132.3;0;77410;;;;
2023/05/25 18:56:21;;;;;;;42;35.1;;;;;;;-132.3;0;77420;;;;
2023/05/25 19:06:21;;;;;;;37.3;32.6;;;;;;;-132.3;0;77440;;;;
2023/05/25 19:17:21;;;;;;;37.3;32.6;;;;;;;-132.3;0;77450;;;;
2023/05/25 19:27:21;;;;;;;37.3;32.6;;;;;;;-132.3;0;77460;;;;
2023/05/25 19:37:21;;;;;;;39.5;33.5;;;;;;;-132.3;0;77470;;;;
2023/05/25 19:47:21;;;;;;;39.5;33.5;;;;;;;-132.3;0;77480;;;;
2023/05/25 19:58:21;;;;;;;39.5;33.5;;;;;;;-132.3;0;77480;;;;
2023/05/25 20:08:23;;;;;;;41;36.1;;;;;;;-132.3;0;77480;;;;
2023/05/25 20:18:22;;;;;;;41;36.1;;;;;;;-132.3;0;77480;;;;
2023/05/25 20:29:21;;;;;;;41;36.1;;;;;;;-132.3;0;77480;;;;
2023/05/25 20:40:21;;;;;;;47.1;39;;;;;;;-132.3;0;77480;;;;
2023/05/25 20:51:21;;;;;;;47.1;39;;;;;;;-132.3;0;77480;;;;
2023/05/25 21:13:21;;;;;;;45.2;37.9;;;;;;;-132.3;0;77500;;;;
2023/05/25 21:24:21;;;;;;;45.2;37.9;;;;;;;-132.3;0;77500;;;;
2023/05/25 21:34:21;;;;;;;45.1;38.4;;;;;;;-132.3;0;77500;;;;
2023/05/25 21:45:21;;;;;;;45.1;38.4;;;;;;;-132.3;0;77510;;;;
2023/05/25 21:55:21;;;;;;;45.1;38.4;;;;;;;-132.3;0;77510;;;;
2023/05/25 22:05:22;;;;;;;42.7;36.7;;;;;;;-132.3;0;77520;;;;
2023/05/25 22:15:21;;;;;;;42.7;36.7;;;;;;;-132.3;0;77530;;;;
2023/05/25 22:25:21;;;;;;;42.7;36.7;;;;;;;-132.3;0;77550;;;;
2023/05/25 22:36:21;;;;;;;43.4;38.7;;;;;;;-132.3;0;77540;;;;
2023/05/25 22:47:21;;;;;;;43.4;38.7;;;;;;;-132.3;0;77560;;;;
2023/05/25 22:57:21;;;;;;;43.4;38.7;;;;;;;-132.3;0;77560;;;;
2023/05/25 23:08:21;;;;;;;42.2;36.3;;;;;;;-132.3;0;77550;;;;
2023/05/25 23:19:22;;;;;;;42.2;36.3;;;;;;;-132.3;0;77570;;;;
2023/05/25 23:29:21;;;;;;;42.2;36.3;;;;;;;-132.3;0;77570;;;;
2023/05/25 23:40:21;;;;;;;44.8;39.2;;;;;;;-132.3;0;77570;;;;
2023/05/25 23:51:21;;;;;;;44.8;39.2;;;;;;;-132.3;0;77570;;;;
